Albert Cenac — WDH3120 — position and weather

sailwx.info

Track history (hours):
 
Tides and Currents Weather Stations Pressure Air Temp Water Temp Dewpoint Dewpoint Depression Visibility Wind Speed Wind Dir Waves Ship Positions

Albert Cenac

Owner: Cenac Marine Services, Houma, LA. More information available from US FCC via Universal Licensing System and Coast Guard Vessel Documentation Center.

Last reported at 2017-Dec-16 09:38 UTC. Time now 2017-Dec-16 15:09 UTC.
Position N 30°04' W 093°26'.

Length 22 m; draft 2.5 m.

Type: Tug. MMSI: 367604480.

Date/timePositionNaut miles runAvg speedWind from/ knotsBaromVisibWave heightAir tempDewpointWater temp
2017-Dec-16 09:38N 30°04' W 093°26'1 6.6
2017-Dec-16 09:30N 30°04' W 093°25'3 6.0
2017-Dec-16 09:00N 30°04' W 093°22'2 4.1
2017-Dec-16 08:30N 30°05' W 093°20'2 4.4
2017-Dec-16 08:00N 30°05' W 093°18'2 4.2
2017-Dec-16 07:30N 30°04' W 093°16'3 5.3
2017-Dec-16 07:00N 30°02' W 093°14'3 5.4
2017-Dec-16 06:30N 29°59' W 093°13'48 5.8
2017-Dec-15 22:16N 29°50' W 092°18'2 5.5
2017-Dec-15 21:57N 29°49' W 092°17'3 6.7
2017-Dec-15 21:30N 29°48' W 092°14'2 3.6
2017-Dec-15 21:00N 29°47' W 092°12'1 2.0
2017-Dec-15 20:30N 29°47' W 092°11'1 1.3
2017-Dec-15 20:01N 29°47' W 092°10'3 5.8
2017-Dec-15 19:30N 29°47' W 092°07'3 5.5
2017-Dec-15 18:56N 29°49' W 092°04'68 5.1
2017-Dec-15 05:40N 29°32' W 090°48'1 6.9
2017-Dec-15 05:30N 29°32' W 090°46'3 5.5
2017-Dec-15 05:00N 29°34' W 090°44'2 4.3
2017-Dec-15 04:30N 29°36' W 090°43'1 1.9
2017-Dec-15 04:00N 29°37' W 090°42'0 0.0
2017-Dec-15 02:30N 29°37' W 090°42'0 0.0
2017-Dec-15 01:00N 29°37' W 090°42'1 1.6
2017-Dec-15 00:30N 29°37' W 090°42'8 1.3
2017-Dec-14 18:20N 29°34' W 090°33'  
Track history (hours):
 
Tides and Currents Weather Stations Pressure Air Temp Water Temp Dewpoint Dewpoint Depression Visibility Wind Speed Wind Dir Waves Ship Positions

Albert Cenac

Owner: Cenac Marine Services, Houma, LA. More information available from US FCC via Universal Licensing System and Coast Guard Vessel Documentation Center.

Last reported at 2017-Dec-16 09:38 UTC. Time now 2017-Dec-16 15:09 UTC.
Position N 30°04' W 093°26'.

Length 22 m; draft 2.5 m.

Type: Tug. MMSI: 367604480.

Date/timePositionNaut miles runAvg speedWind from/ knotsBaromVisibWave heightAir tempDewpointWater temp
2017-Dec-16 09:38N 30°04' W 093°26'1 6.6
2017-Dec-16 09:30N 30°04' W 093°25'3 6.0
2017-Dec-16 09:00N 30°04' W 093°22'2 4.1
2017-Dec-16 08:30N 30°05' W 093°20'2 4.4
2017-Dec-16 08:00N 30°05' W 093°18'2 4.2
2017-Dec-16 07:30N 30°04' W 093°16'3 5.3
2017-Dec-16 07:00N 30°02' W 093°14'3 5.4
2017-Dec-16 06:30N 29°59' W 093°13'48 5.8
2017-Dec-15 22:16N 29°50' W 092°18'2 5.5
2017-Dec-15 21:57N 29°49' W 092°17'3 6.7
2017-Dec-15 21:30N 29°48' W 092°14'2 3.6
2017-Dec-15 21:00N 29°47' W 092°12'1 2.0
2017-Dec-15 20:30N 29°47' W 092°11'1 1.3
2017-Dec-15 20:01N 29°47' W 092°10'3 5.8
2017-Dec-15 19:30N 29°47' W 092°07'3 5.5
2017-Dec-15 18:56N 29°49' W 092°04'68 5.1
2017-Dec-15 05:40N 29°32' W 090°48'1 6.9
2017-Dec-15 05:30N 29°32' W 090°46'3 5.5
2017-Dec-15 05:00N 29°34' W 090°44'2 4.3
2017-Dec-15 04:30N 29°36' W 090°43'1 1.9
2017-Dec-15 04:00N 29°37' W 090°42'0 0.0
2017-Dec-15 02:30N 29°37' W 090°42'0 0.0
2017-Dec-15 01:00N 29°37' W 090°42'1 1.6
2017-Dec-15 00:30N 29°37' W 090°42'8 1.3
2017-Dec-14 18:20N 29°34' W 090°33'  

Dump ship's entire track history